createdAt,value
2018-11-01T00:01:38.155Z,95065.14
2018-11-01T00:04:10.033Z,95064.48
2018-11-01T00:06:41.954Z,95067.34
2018-11-01T00:09:13.793Z,95073.06
2018-11-01T00:11:46.430Z,95081.70
2018-11-01T00:14:21.208Z,95079.95
2018-11-01T00:16:55.853Z,95082.30
2018-11-01T00:19:27.737Z,95072.86
2018-11-01T00:21:59.712Z,95068.48
2018-11-01T00:24:31.586Z,95063.02
2018-11-01T00:27:03.600Z,95058.13
2018-11-01T00:29:35.506Z,95059.05
2018-11-01T00:32:07.454Z,95063.89
2018-11-01T00:34:39.303Z,95059.59
2018-11-01T00:37:11.209Z,95062.60
2018-11-01T00:39:43.084Z,95060.23
2018-11-01T00:42:14.985Z,95059.69
2018-11-01T00:44:46.911Z,95054.28
2018-11-01T00:47:18.844Z,95060.13
2018-11-01T00:49:50.815Z,95063.77
2018-11-01T00:52:25.142Z,95057.95
2018-11-01T00:54:56.993Z,95054.36
2018-11-01T00:57:28.912Z,95045.25
2018-11-01T01:00:00.886Z,95041.45
2018-11-01T01:02:35.060Z,95032.75
2018-11-01T01:05:08.503Z,95044.55
2018-11-01T01:07:40.684Z,95034.36
2018-11-01T01:10:15.553Z,95023.78
2018-11-01T01:12:48.972Z,95025.55
2018-11-01T01:15:20.866Z,95025.45
2018-11-01T01:17:52.735Z,95015.17
2018-11-01T01:20:24.628Z,95008.84
2018-11-01T01:22:56.498Z,94993.88
2018-11-01T01:25:28.390Z,94980.22
2018-11-01T01:28:00.284Z,94984.10
2018-11-01T01:30:32.520Z,94984.46
2018-11-01T01:33:04.439Z,94980.83
2018-11-01T01:35:36.308Z,94990.64
2018-11-01T01:38:08.174Z,95003.75
2018-11-01T01:40:40.054Z,95006.13
2018-11-01T01:43:11.925Z,94998.25
2018-11-01T01:45:43.898Z,94998.75
2018-11-01T01:48:15.906Z,95009.02
2018-11-01T01:50:47.872Z,95001.37
2018-11-01T01:53:19.716Z,94998.61
2018-11-01T01:55:51.596Z,95003.77
2018-11-01T01:58:23.473Z,95022.73
2018-11-01T02:00:55.344Z,95020.41
2018-11-01T02:03:27.281Z,95017.18
2018-11-01T02:06:01.046Z,95008.73
2018-11-01T02:08:32.916Z,95001.28
2018-11-01T02:11:04.790Z,94981.79
2018-11-01T02:13:36.671Z,94979.67
2018-11-01T02:16:08.864Z,94990.08
2018-11-01T02:18:40.755Z,94996.28
2018-11-01T02:21:12.621Z,94978.98
2018-11-01T02:23:44.531Z,94974.89
2018-11-01T02:26:16.381Z,94989.08
2018-11-01T02:28:48.220Z,95003.49
2018-11-01T02:31:20.085Z,95005.48
2018-11-01T02:33:51.960Z,95001.58
2018-11-01T02:36:23.822Z,94990.73
2018-11-01T02:38:55.657Z,94977.41
2018-11-01T02:41:27.504Z,94967.88
2018-11-01T02:43:59.385Z,94966.97
2018-11-01T02:46:31.220Z,94975.86
2018-11-01T02:49:03.192Z,94965.68
2018-11-01T02:51:35.052Z,94975.28
2018-11-01T02:54:07.939Z,94979.38
2018-11-01T02:56:41.976Z,94970.30
2018-11-01T02:59:12.207Z,94970.52
2018-11-01T03:01:44.272Z,94973.61
2018-11-01T03:04:16.232Z,94976.05
2018-11-01T03:06:48.156Z,94977.20
2018-11-01T03:09:20.011Z,94959.68
2018-11-01T03:11:51.884Z,94955.44
2018-11-01T03:14:23.791Z,94959.72
2018-11-01T03:16:55.666Z,94964.77
2018-11-01T03:19:28.086Z,94951.68
2018-11-01T03:21:59.936Z,94956.45
2018-11-01T03:24:31.801Z,94969.02
2018-11-01T03:27:03.642Z,94960.30
2018-11-01T03:29:35.478Z,94957.34
2018-11-01T03:32:10.419Z,94951.27
2018-11-01T03:34:42.272Z,94935.19
2018-11-01T03:37:14.107Z,94921.24
2018-11-01T03:39:45.976Z,94919.19
2018-11-01T03:42:17.811Z,94929.77
2018-11-01T03:44:49.642Z,94937.33
2018-11-01T03:47:21.502Z,94939.19
2018-11-01T03:49:53.385Z,94931.56
2018-11-01T03:52:25.748Z,94934.20
2018-11-01T03:55:00.316Z,94940.14
2018-11-01T03:57:34.573Z,94946.13
2018-11-01T04:00:09.080Z,94963.06
2018-11-01T04:02:41.029Z,94962.53
2018-11-01T04:05:13.126Z,94966.08
2018-11-01T04:07:45.015Z,94954.63
2018-11-01T04:10:16.864Z,94929.22
2018-11-01T04:15:20.640Z,94935.16
2018-11-01T04:17:52.445Z,94936.77
2018-11-01T04:20:24.281Z,94936.77
2018-11-01T04:22:56.104Z,94924.24
2018-11-01T04:25:27.956Z,94915.27
2018-11-01T04:27:59.779Z,94911.14
2018-11-01T04:30:31.646Z,94911.22
2018-11-01T04:33:03.556Z,94918.37
2018-11-01T04:35:35.343Z,94917.47
2018-11-01T04:38:07.500Z,94918.56
2018-11-01T04:40:41.928Z,94896.34
2018-11-01T04:43:13.734Z,94883.76
2018-11-01T04:45:45.570Z,94874.95
2018-11-01T04:48:17.432Z,94874.83
2018-11-01T04:50:49.295Z,94874.48
2018-11-01T04:53:21.117Z,94890.07
2018-11-01T04:55:52.953Z,94895.41
2018-11-01T04:58:24.799Z,94889.25
2018-11-01T05:00:56.831Z,94884.09
2018-11-01T05:03:28.670Z,94864.58
2018-11-01T05:06:00.554Z,94866.44
2018-11-01T05:08:32.389Z,94859.73
2018-11-01T05:11:04.255Z,94848.16
2018-11-01T05:13:36.094Z,94830.86
2018-11-01T05:16:08.380Z,94813.11
2018-11-01T05:18:43.383Z,94809.73
2018-11-01T05:21:15.857Z,94825.86
2018-11-01T05:23:47.739Z,94823.08
2018-11-01T05:26:19.585Z,94812.69
2018-11-01T05:28:51.425Z,94812.91
2018-11-01T05:31:23.271Z,94815.88
2018-11-01T05:33:55.099Z,94813.56
2018-11-01T05:36:27.413Z,94824.83
2018-11-01T05:38:59.264Z,94827.16
2018-11-01T05:41:31.133Z,94814.11
2018-11-01T05:44:03.511Z,94798.05
2018-11-01T05:46:35.379Z,94792.08
2018-11-01T05:49:07.758Z,94800.78
2018-11-01T05:51:39.615Z,94809.56
2018-11-01T05:54:12.184Z,94820.32
2018-11-01T05:56:44.052Z,94804.00
2018-11-01T05:59:17.878Z,94805.22
2018-11-01T06:02:11.120Z,94794.53
2018-11-01T06:04:42.955Z,94789.76
2018-11-01T06:07:16.405Z,94805.62
2018-11-01T06:09:48.279Z,94819.09
2018-11-01T06:12:20.199Z,94801.01
2018-11-01T06:14:52.008Z,94802.14
2018-11-01T06:17:23.855Z,94799.08
2018-11-01T06:19:55.740Z,94797.76
2018-11-01T06:22:27.848Z,94788.30
2018-11-01T06:25:01.332Z,94795.00
2018-11-01T06:27:32.079Z,94801.94
2018-11-01T06:30:03.919Z,94804.16
2018-11-01T06:32:35.854Z,94807.87
2018-11-01T06:35:14.268Z,94815.10
2018-11-01T06:37:46.270Z,94794.64
2018-11-01T06:40:18.530Z,94775.09
2018-11-01T06:42:50.417Z,94782.53
2018-11-01T06:45:22.307Z,94791.62
2018-11-01T06:47:54.219Z,94778.71
2018-11-01T06:50:26.086Z,94766.31
2018-11-01T06:52:57.950Z,94778.02
2018-11-01T06:55:29.796Z,94770.23
2018-11-01T06:58:01.665Z,94770.25
2018-11-01T07:00:33.609Z,94782.53
2018-11-01T07:03:05.724Z,94795.69
2018-11-01T07:05:37.722Z,94813.81
2018-11-01T07:08:09.680Z,94812.02
2018-11-01T07:10:41.691Z,94799.11
2018-11-01T07:13:13.658Z,94801.11
2018-11-01T07:15:45.835Z,94812.02
2018-11-01T07:18:17.776Z,94815.53
2018-11-01T07:20:49.781Z,94815.47
2018-11-01T07:23:24.968Z,94814.21
2018-11-01T07:26:02.724Z,94825.03
2018-11-01T07:28:34.878Z,94822.53
2018-11-01T07:31:09.588Z,94831.06
2018-11-01T07:33:41.978Z,94832.63
2018-11-01T07:36:13.923Z,94837.87
2018-11-01T07:38:45.868Z,94828.34
2018-11-01T07:41:27.487Z,94833.45
2018-11-01T07:44:07.287Z,94835.04
2018-11-01T07:46:42.658Z,94819.48
2018-11-01T07:49:15.385Z,94815.34
2018-11-01T07:51:47.311Z,94816.80
2018-11-01T07:54:19.874Z,94825.52
2018-11-01T07:56:51.729Z,94816.86
2018-11-01T07:59:23.732Z,94822.50
2018-11-01T08:01:55.669Z,94791.80
2018-11-01T08:04:33.279Z,94789.52
2018-11-01T08:07:07.072Z,94792.70
2018-11-01T08:09:38.958Z,94801.83
2018-11-01T08:12:11.720Z,94805.05
2018-11-01T08:14:43.841Z,94788.55
2018-11-01T08:17:15.736Z,94777.94
2018-11-01T08:19:47.779Z,94766.39
2018-11-01T08:22:19.565Z,94751.35
2018-11-01T08:24:51.470Z,94763.80
2018-11-01T08:27:23.362Z,94772.23
2018-11-01T08:29:55.261Z,94777.59
2018-11-01T08:32:27.172Z,94781.45
2018-11-01T08:34:59.022Z,94776.36
2018-11-01T08:37:30.869Z,94767.86
2018-11-01T08:40:02.892Z,94754.34
2018-11-01T08:42:34.841Z,94748.05
2018-11-01T08:45:08.301Z,94764.95
2018-11-01T08:47:40.463Z,94763.72
2018-11-01T08:50:16.029Z,94752.33
2018-11-01T08:52:47.862Z,94757.73
2018-11-01T08:55:19.774Z,94749.05
2018-11-01T08:57:54.569Z,94754.61
2018-11-01T09:00:26.461Z,94763.73
2018-11-01T09:02:58.596Z,94762.02
2018-11-01T09:05:30.473Z,94753.24
2018-11-01T09:08:02.967Z,94760.56
2018-11-01T09:10:34.896Z,94759.16
2018-11-01T09:13:06.847Z,94763.43
2018-11-01T09:15:38.751Z,94743.50
2018-11-01T09:18:12.394Z,94751.03
2018-11-01T09:20:44.464Z,94756.08
2018-11-01T09:23:16.384Z,94746.13
2018-11-01T09:25:50.798Z,94757.88
2018-11-01T09:28:22.666Z,94763.67
2018-11-01T09:30:54.605Z,94755.49
2018-11-01T09:33:26.496Z,94754.75
2018-11-01T09:35:58.385Z,94779.45
2018-11-01T09:38:30.302Z,94775.97
2018-11-01T09:41:02.226Z,94789.27
2018-11-01T09:43:34.130Z,94800.42
2018-11-01T09:46:06.455Z,94809.09
2018-11-01T09:48:38.122Z,94805.56
2018-11-01T09:51:10.092Z,94810.19
2018-11-01T09:53:42.148Z,94814.34
2018-11-01T09:56:14.470Z,94820.44
2018-11-01T09:58:48.349Z,94829.38
2018-11-01T10:01:20.342Z,94836.36
2018-11-01T10:03:52.597Z,94842.16
2018-11-01T10:06:24.543Z,94844.87
2018-11-01T10:08:59.256Z,94852.66
2018-11-01T10:11:31.227Z,94870.09
2018-11-01T10:14:03.228Z,94864.76
2018-11-01T10:16:35.210Z,94857.70
2018-11-01T10:19:07.967Z,94849.86
2018-11-01T10:21:42.708Z,94850.03
2018-11-01T10:24:14.572Z,94850.86
2018-11-01T10:26:46.465Z,94831.89
2018-11-01T10:29:18.353Z,94823.72
2018-11-01T10:31:50.299Z,94818.54
2018-11-01T10:34:22.167Z,94799.67
2018-11-01T10:36:54.047Z,94796.86
2018-11-01T10:39:25.928Z,94801.50
2018-11-01T10:41:57.862Z,94797.05
2018-11-01T10:44:29.906Z,94791.42
2018-11-01T10:47:01.922Z,94795.09
2018-11-01T10:49:33.792Z,94801.22
2018-11-01T10:52:05.760Z,94795.86
2018-11-01T10:54:37.720Z,94784.50
2018-11-01T10:57:09.675Z,94786.81
2018-11-01T10:59:41.541Z,94779.69
2018-11-01T11:02:24.455Z,94775.64
2018-11-01T11:04:56.303Z,94769.82
2018-11-01T11:07:28.233Z,94760.08
2018-11-01T11:10:00.213Z,94765.34
2018-11-01T11:12:32.099Z,94755.28
2018-11-01T11:15:03.935Z,94750.78
2018-11-01T11:17:35.828Z,94742.37
2018-11-01T11:20:08.531Z,94750.36
2018-11-01T11:22:40.381Z,94754.44
2018-11-01T11:25:12.947Z,94745.33
2018-11-01T11:27:44.857Z,94739.95
2018-11-01T11:30:18.119Z,94745.95
2018-11-01T11:32:50.087Z,94735.69
2018-11-01T11:35:22.351Z,94747.58
2018-11-01T11:37:54.122Z,94735.71
2018-11-01T11:40:25.923Z,94729.81
2018-11-01T11:42:57.865Z,94734.04
2018-11-01T11:45:29.769Z,94731.96
2018-11-01T11:48:01.703Z,94728.67
2018-11-01T11:50:33.634Z,94733.93
2018-11-01T11:53:05.512Z,94744.53
2018-11-01T11:55:37.604Z,94753.80
2018-11-01T11:58:09.557Z,94759.19
2018-11-01T12:00:41.504Z,94769.11
2018-11-01T12:03:13.534Z,94778.09
2018-11-01T12:05:45.539Z,94788.70
2018-11-01T12:08:20.092Z,94792.44
2018-11-01T12:10:57.601Z,94792.75
2018-11-01T12:13:29.513Z,94787.71
2018-11-01T12:16:02.840Z,94779.56
2018-11-01T12:18:34.760Z,94794.09
2018-11-01T12:21:06.717Z,94800.60
2018-11-01T12:23:38.586Z,94797.35
2018-11-01T12:26:10.480Z,94801.75
2018-11-01T12:28:42.493Z,94805.82
2018-11-01T12:37:54.386Z,94799.31
2018-11-01T12:40:26.375Z,94804.50
2018-11-01T12:43:01.097Z,94811.17
2018-11-01T12:45:32.990Z,94811.33
2018-11-01T12:48:04.891Z,94808.06
2018-11-01T12:50:39.411Z,94814.09
2018-11-01T12:53:11.389Z,94816.21
2018-11-01T12:55:43.276Z,94817.63
2018-11-01T12:58:16.118Z,94827.13
2018-11-01T13:00:48.019Z,94823.00
2018-11-01T13:03:19.918Z,94813.53
2018-11-01T13:05:51.899Z,94805.08
2018-11-01T13:08:25.680Z,94802.53
2018-11-01T13:10:57.538Z,94791.61
2018-11-01T13:13:29.498Z,94790.94
2018-11-01T13:16:01.391Z,94813.83
2018-11-01T13:18:33.319Z,94816.31
2018-11-01T13:21:05.375Z,94805.20
2018-11-01T13:23:37.233Z,94807.93
2018-11-01T13:26:09.242Z,94814.39
2018-11-01T13:28:43.811Z,94813.20
2018-11-01T13:31:15.791Z,94802.47
2018-11-01T13:33:47.694Z,94802.81
2018-11-01T13:36:19.710Z,94807.56
2018-11-01T13:38:54.679Z,94800.95
2018-11-01T13:41:26.583Z,94799.78
2018-11-01T13:43:58.728Z,94800.09
2018-11-01T13:46:30.735Z,94806.52
2018-11-01T13:49:02.679Z,94814.55
2018-11-01T13:51:34.529Z,94816.16
2018-11-01T13:54:06.722Z,94820.86
2018-11-01T13:56:38.897Z,94817.67
2018-11-01T13:59:10.752Z,94830.12
2018-11-01T14:01:45.441Z,94827.00
2018-11-01T14:04:17.336Z,94832.55
2018-11-01T14:06:49.227Z,94837.12
2018-11-01T14:09:21.135Z,94839.55
2018-11-01T14:11:53.036Z,94844.91
2018-11-01T14:14:25.300Z,94845.09
2018-11-01T14:16:56.770Z,94856.42
2018-11-01T14:19:28.601Z,94858.97
2018-11-01T14:22:00.508Z,94865.91
2018-11-01T14:24:32.364Z,94867.39
2018-11-01T14:27:04.354Z,94874.17
2018-11-01T14:29:38.874Z,94880.56
2018-11-01T14:32:10.860Z,94889.13
2018-11-01T14:34:43.095Z,94893.45
2018-11-01T14:37:15.066Z,94897.08
2018-11-01T14:39:46.957Z,94898.38
2018-11-01T14:42:18.807Z,94898.39
2018-11-01T14:44:50.720Z,94895.89
2018-11-01T14:47:22.649Z,94907.85
2018-11-01T14:49:54.534Z,94913.12
2018-11-01T14:52:26.977Z,94909.91
2018-11-01T14:55:02.014Z,94920.13
2018-11-01T14:57:34.332Z,94921.07
2018-11-01T15:00:05.406Z,94931.88
2018-11-01T15:02:37.369Z,94939.05
2018-11-01T15:05:10.036Z,94935.98
2018-11-01T15:07:42.108Z,94934.11
2018-11-01T15:10:15.324Z,94937.75
2018-11-01T15:12:47.184Z,94942.53
2018-11-01T15:15:19.088Z,94944.70
2018-11-01T15:17:51.082Z,94955.47
2018-11-01T15:20:22.928Z,94953.54
2018-11-01T15:22:54.909Z,94962.67
2018-11-01T15:25:28.649Z,94960.53
2018-11-01T15:28:02.222Z,94973.73
2018-11-01T15:30:34.030Z,94976.65
2018-11-01T15:33:05.902Z,94983.22
2018-11-01T15:35:37.745Z,94975.83
2018-11-01T15:38:09.694Z,94982.31
2018-11-01T15:40:41.593Z,94990.97
2018-11-01T15:43:13.752Z,94982.94
2018-11-01T15:45:45.624Z,94983.31
2018-11-01T15:48:17.654Z,94976.13
2018-11-01T15:50:49.455Z,94977.95
2018-11-01T15:53:21.372Z,94987.79
2018-11-01T15:55:53.224Z,94990.22
2018-11-01T15:58:25.653Z,94987.62
2018-11-01T16:00:57.503Z,94988.27
2018-11-01T16:03:29.469Z,94995.13
2018-11-01T16:06:01.254Z,95004.59
2018-11-01T16:08:33.136Z,95008.90
2018-11-01T16:11:04.975Z,95016.52
2018-11-01T16:13:37.364Z,95014.64
2018-11-01T16:16:09.218Z,95027.48
2018-11-01T16:18:41.153Z,95033.01
2018-11-01T16:21:13.227Z,95036.84
2018-11-01T16:23:45.107Z,95031.23
2018-11-01T16:26:16.972Z,95036.40
2018-11-01T16:28:48.832Z,95051.31
2018-11-01T16:31:20.696Z,95051.06
2018-11-01T16:33:52.819Z,95049.88
2018-11-01T16:36:24.899Z,95047.48
2018-11-01T16:38:56.864Z,95050.28
2018-11-01T16:41:28.761Z,95054.26
2018-11-01T16:44:00.747Z,95055.05
2018-11-01T16:46:32.696Z,95062.33
2018-11-01T16:49:04.543Z,95068.52
2018-11-01T16:51:36.364Z,95068.96
2018-11-01T16:54:08.252Z,95064.41
2018-11-01T16:56:40.147Z,95074.06
2018-11-01T16:59:12.046Z,95087.68
2018-11-01T17:01:43.924Z,95088.72
2018-11-01T17:04:15.830Z,95086.95
2018-11-01T17:06:47.719Z,95092.25
2018-11-01T17:09:19.684Z,95085.02
2018-11-01T17:11:51.888Z,95090.84
2018-11-01T17:14:23.964Z,95096.97
2018-11-01T17:16:56.021Z,95101.15
2018-11-01T17:19:27.942Z,95110.41
2018-11-01T17:21:59.791Z,95109.15
2018-11-01T17:24:31.777Z,95107.50
2018-11-01T17:27:03.662Z,95111.16
2018-11-01T17:29:35.625Z,95116.13
2018-11-01T17:32:07.523Z,95118.81
2018-11-01T17:34:39.414Z,95124.88
2018-11-01T17:37:11.490Z,95129.27
2018-11-01T17:39:43.613Z,95136.17
2018-11-01T17:42:15.504Z,95151.75
2018-11-01T17:44:47.411Z,95159.69
2018-11-01T17:47:19.297Z,95166.83
2018-11-01T17:49:51.186Z,95172.19
2018-11-01T17:52:23.158Z,95165.42
2018-11-01T17:54:55.042Z,95180.55
2018-11-01T17:57:26.899Z,95182.00
2018-11-01T17:59:58.747Z,95189.45
2018-11-01T18:02:30.639Z,95198.45
2018-11-01T18:05:02.496Z,95190.36
2018-11-01T18:07:34.348Z,95186.08
2018-11-01T18:10:06.522Z,95193.47
2018-11-01T18:12:38.395Z,95200.27
2018-11-01T18:15:10.431Z,95205.11
2018-11-01T18:17:42.293Z,95207.59
2018-11-01T18:20:14.724Z,95216.23
2018-11-01T18:22:46.800Z,95210.62
2018-11-01T18:25:18.830Z,95218.07
2018-11-01T18:27:50.644Z,95213.78
2018-11-01T18:30:22.539Z,95218.86
2018-11-01T18:32:54.663Z,95221.95
2018-11-01T18:35:26.288Z,95231.77
2018-11-01T18:37:58.196Z,95241.72
2018-11-01T18:40:30.056Z,95254.97
2018-11-01T18:43:01.893Z,95245.44
2018-11-01T18:45:36.513Z,95251.70
2018-11-01T18:48:08.634Z,95242.05
2018-11-01T18:50:40.453Z,95247.36
2018-11-01T18:53:12.313Z,95245.45
2018-11-01T18:55:44.187Z,95255.31
2018-11-01T18:58:16.072Z,95254.53
2018-11-01T19:00:48.258Z,95262.03
2018-11-01T19:03:32.962Z,95267.11
2018-11-01T19:06:05.366Z,95263.54
2018-11-01T19:08:37.208Z,95271.80
2018-11-01T19:11:11.870Z,95285.77
2018-11-01T19:13:43.932Z,95290.67
2018-11-01T19:16:15.750Z,95295.91
2018-11-01T19:18:47.751Z,95296.03
2018-11-01T19:21:19.716Z,95312.27
2018-11-01T19:23:51.558Z,95321.61
2018-11-01T19:26:23.638Z,95329.19
2018-11-01T19:28:55.726Z,95343.21
2018-11-01T19:31:27.618Z,95349.70
2018-11-01T19:33:59.568Z,95349.34
2018-11-01T19:36:31.406Z,95357.61
2018-11-01T19:39:03.353Z,95367.25
2018-11-01T19:41:35.273Z,95358.91
2018-11-01T19:44:07.200Z,95364.79
2018-11-01T19:46:39.110Z,95369.13
2018-11-01T19:49:10.967Z,95382.07
2018-11-01T19:51:42.898Z,95380.66
2018-11-01T19:54:14.842Z,95375.84
2018-11-01T19:56:46.917Z,95374.66
2018-11-01T19:59:18.870Z,95386.30
2018-11-01T20:01:53.825Z,95393.60
2018-11-01T20:04:27.567Z,95396.77
2018-11-01T20:07:00.454Z,95403.00
2018-11-01T20:09:32.293Z,95408.94
2018-11-01T20:12:04.247Z,95415.16
2018-11-01T20:14:36.171Z,95416.91
2018-11-01T20:17:08.548Z,95419.50
2018-11-01T20:19:40.744Z,95426.08
2018-11-01T20:22:12.601Z,95437.01
2018-11-01T20:24:44.478Z,95440.07
2018-11-01T20:27:19.834Z,95438.25
2018-11-01T20:29:51.897Z,95440.84
2018-11-01T20:32:23.778Z,95434.48
2018-11-01T20:34:55.848Z,95439.50
2018-11-01T20:37:30.066Z,95446.73
2018-11-01T20:40:04.921Z,95454.83
2018-11-01T20:42:36.924Z,95466.14
2018-11-01T20:45:10.830Z,95468.95
2018-11-01T20:47:42.808Z,95460.38
2018-11-01T20:50:15.263Z,95464.58
2018-11-01T20:52:49.875Z,95479.95
2018-11-01T20:55:21.732Z,95482.22
2018-11-01T20:57:53.752Z,95474.55
2018-11-01T21:00:25.811Z,95479.53
2018-11-01T21:02:57.720Z,95484.70
2018-11-01T21:05:32.370Z,95503.72
2018-11-01T21:08:01.900Z,95507.91
2018-11-01T21:10:33.839Z,95499.28
2018-11-01T21:13:06.011Z,95510.58
2018-11-01T21:15:37.873Z,95522.98
2018-11-01T21:18:12.652Z,95519.52
2018-11-01T21:20:44.513Z,95517.63
2018-11-01T21:23:16.690Z,95527.50
2018-11-01T21:25:48.579Z,95532.69
2018-11-01T21:28:20.500Z,95536.73
2018-11-01T21:30:52.348Z,95546.62
2018-11-01T21:33:24.213Z,95554.62
2018-11-01T21:35:59.167Z,95551.34
2018-11-01T21:38:30.992Z,95551.86
2018-11-01T21:41:02.867Z,95551.75
2018-11-01T21:43:34.795Z,95553.53
2018-11-01T21:46:06.651Z,95556.63
2018-11-01T21:48:38.584Z,95566.96
2018-11-01T21:51:10.413Z,95569.79
2018-11-01T21:53:42.325Z,95566.55
2018-11-01T21:56:14.135Z,95556.25
2018-11-01T21:58:49.134Z,95555.56
2018-11-01T22:01:21.895Z,95545.83
2018-11-01T22:03:53.855Z,95539.73
2018-11-01T22:06:25.696Z,95537.98
2018-11-01T22:08:58.064Z,95545.34
2018-11-01T22:11:30.468Z,95549.84
2018-11-01T22:14:02.357Z,95553.58
2018-11-01T22:16:34.205Z,95558.73
2018-11-01T22:19:06.268Z,95565.13
2018-11-01T22:21:38.364Z,95573.81
2018-11-01T22:24:13.367Z,95576.53
2018-11-01T22:26:45.201Z,95576.04
2018-11-01T22:29:17.152Z,95568.19
2018-11-01T22:31:49.005Z,95575.97
2018-11-01T22:34:21.521Z,95574.75
2018-11-01T22:36:53.397Z,95574.16
2018-11-01T22:39:25.280Z,95589.72
2018-11-01T22:41:57.161Z,95605.16
2018-11-01T22:44:29.161Z,95611.92
2018-11-01T22:47:00.897Z,95617.75
2018-11-01T22:49:32.781Z,95626.46
2018-11-01T22:52:04.671Z,95617.70
2018-11-01T22:54:36.532Z,95621.34
2018-11-01T22:57:08.399Z,95618.89
2018-11-01T22:59:40.498Z,95619.23
2018-11-01T23:02:12.326Z,95626.67
2018-11-01T23:04:44.184Z,95619.34
2018-11-01T23:07:16.032Z,95614.42
2018-11-01T23:09:47.903Z,95608.77
2018-11-01T23:12:19.740Z,95606.33
2018-11-01T23:14:51.623Z,95606.75
2018-11-01T23:17:23.474Z,95604.62
2018-11-01T23:19:55.334Z,95606.54
2018-11-01T23:22:27.164Z,95600.64
2018-11-01T23:24:59.608Z,95600.28
2018-11-01T23:27:31.674Z,95606.82
2018-11-01T23:30:03.569Z,95615.92
2018-11-01T23:32:35.591Z,95621.44
2018-11-01T23:35:10.793Z,95629.75
2018-11-01T23:38:00.188Z,95627.34
2018-11-01T23:40:49.400Z,95633.41
2018-11-01T23:43:40.740Z,95635.75
2018-11-01T23:46:30.115Z,95637.50
2018-11-01T23:49:12.587Z,95640.45
2018-11-01T23:51:59.422Z,95654.29
2018-11-01T23:54:33.179Z,95659.52
2018-11-01T23:57:03.657Z,95649.71
2018-11-01T23:59:35.490Z,95644.48
